Jeanie G — WDB2354 — position and weather

sailwx.info

Track history (hours):
 
Tides and Currents Weather Stations Pressure Air Temp Water Temp Dewpoint Dewpoint Depression Visibility Wind Speed Wind Dir Waves Ship Positions

Jeanie G

Owner: MARTIN OPERATING PARTNERSHIP LP, VIDOR, TX. More information available from US FCC via Universal Licensing System and Coast Guard Vessel Documentation Center.

Last reported at 2014-Dec-20 04:32 UTC. Time now 2014-Dec-20 07:20 UTC.
Position N 29°56' W 090°00'.

MMSI: 366875010.

Date/timePositionNaut miles runAvg speedWind from/ knotsBaromVisibWave heightAir tempDewpointWater temp
2014-Dec-20 04:32N 29°56' W 090°00'0 0.0
2014-Dec-20 00:17N 29°56' W 090°00'0 0.0
2014-Dec-19 23:28N 29°56' W 090°00'0 0.0
2014-Dec-19 22:06N 29°56' W 090°00'0 0.0
2014-Dec-19 21:22N 29°56' W 090°00'0 0.0
2014-Dec-19 19:24N 29°56' W 090°00'0 0.0
2014-Dec-19 18:24N 29°56' W 090°00'0 0.0
2014-Dec-19 17:33N 29°56' W 090°00'0 0.0
2014-Dec-19 16:30N 29°56' W 090°00'1 0.7
2014-Dec-19 15:32N 29°57' W 090°01'2 2.1
2014-Dec-19 14:31N 29°57' W 090°03'3 3.5
2014-Dec-19 13:30N 29°56' W 089°60'5 2.4
2014-Dec-19 11:17N 29°52' W 089°56'4 0.1
2014-Dec-17 15:26N 29°56' W 089°58'0 0.0
2014-Dec-17 12:24N 29°56' W 089°58'0 0.0
2014-Dec-17 09:09N 29°56' W 089°58'0 0.1
2014-Dec-17 08:31N 29°56' W 089°58'2 1.3
2014-Dec-17 07:10N 29°56' W 090°00'0 0.0
2014-Dec-17 06:22N 29°56' W 090°00'0 0.0
2014-Dec-17 05:10N 29°56' W 090°00'0 0.0
2014-Dec-17 04:28N 29°56' W 090°00'0 0.0
2014-Dec-17 03:33N 29°56' W 090°00'0 0.0
2014-Dec-17 02:32N 29°56' W 090°00'0 0.0
2014-Dec-17 01:33N 29°56' W 090°00'0 0.0
2014-Dec-17 00:32N 29°56' W 090°00'0 0.0
2014-Dec-16 23:33N 29°56' W 090°00'0 0.0
2014-Dec-16 22:33N 29°56' W 090°00'0 0.0
2014-Dec-16 21:32N 29°56' W 090°00'0 0.0
2014-Dec-16 20:32N 29°56' W 090°00'0 0.0
2014-Dec-16 19:26N 29°56' W 090°00'0 0.0
2014-Dec-16 13:15N 29°56' W 090°00'0 0.0
2014-Dec-16 03:26N 29°56' W 090°00'0 0.0
2014-Dec-16 02:31N 29°56' W 090°00'0 0.0
2014-Dec-15 23:20N 29°56' W 090°00'0 0.0
2014-Dec-15 22:26N 29°56' W 090°00'0 0.0
2014-Dec-15 21:33N 29°56' W 090°00'0 0.0
2014-Dec-15 20:20N 29°56' W 090°00'0 0.0
2014-Dec-15 19:32N 29°56' W 090°00'0 0.0
2014-Dec-15 18:33N 29°56' W 090°00'0 0.0
2014-Dec-15 17:33N 29°56' W 090°00'0 0.0
2014-Dec-15 16:31N 29°56' W 090°00'0 0.0
2014-Dec-15 15:33N 29°56' W 090°00'0 0.0
2014-Dec-15 14:32N 29°56' W 090°00'0 0.0
2014-Dec-15 13:33N 29°56' W 090°00'0 0.0
2014-Dec-15 12:19N 29°56' W 090°00'0 0.0
2014-Dec-15 11:26N 29°56' W 090°00'0 0.0
2014-Dec-14 20:14N 29°56' W 090°00'0 0.0
2014-Dec-14 19:33N 29°56' W 090°00'0 0.0
2014-Dec-14 18:28N 29°56' W 090°00'0 0.0
2014-Dec-14 17:31N 29°56' W 090°00'0 0.0
2014-Dec-14 16:33N 29°56' W 090°00'0 0.0
2014-Dec-14 15:33N 29°56' W 090°00'0 0.0
2014-Dec-14 14:32N 29°56' W 090°00'0 0.0
2014-Dec-14 13:33N 29°56' W 090°00'1 0.6
2014-Dec-14 12:33N 29°57' W 090°00'3 2.9
2014-Dec-14 11:32N 29°60' W 090°01'2 1.4
2014-Dec-14 10:25N 29°60' W 089°59'0 0.0
2014-Dec-14 09:32N 29°60' W 089°59'0 0.0
2014-Dec-14 08:33N 29°60' W 089°59'0 0.0
2014-Dec-14 07:32N 29°60' W 089°59'0 0.0
2014-Dec-14 06:29N 29°60' W 089°59'0 0.0
2014-Dec-14 05:33N 29°60' W 089°59'0 0.0
2014-Dec-14 04:29N 29°60' W 089°59'0 0.0
2014-Dec-14 03:33N 29°60' W 089°59'0 0.0
2014-Dec-14 02:33N 29°60' W 089°59'0 0.0
2014-Dec-14 01:33N 29°60' W 089°59'0 0.0
2014-Dec-14 00:27N 29°60' W 089°59'0 0.0
2014-Dec-13 23:25N 29°60' W 089°59'0 0.0
2014-Dec-13 22:31N 29°60' W 089°59'0 0.0
2014-Dec-13 21:32N 29°60' W 089°59'0 0.0
2014-Dec-13 20:05N 29°60' W 089°59'0 0.0
2014-Dec-13 13:06N 29°60' W 089°59'  
Track history (hours):
 
Tides and Currents Weather Stations Pressure Air Temp Water Temp Dewpoint Dewpoint Depression Visibility Wind Speed Wind Dir Waves Ship Positions

Jeanie G

Owner: MARTIN OPERATING PARTNERSHIP LP, VIDOR, TX. More information available from US FCC via Universal Licensing System and Coast Guard Vessel Documentation Center.

Last reported at 2014-Dec-20 04:32 UTC. Time now 2014-Dec-20 07:20 UTC.
Position N 29°56' W 090°00'.

MMSI: 366875010.

Date/timePositionNaut miles runAvg speedWind from/ knotsBaromVisibWave heightAir tempDewpointWater temp
2014-Dec-20 04:32N 29°56' W 090°00'0 0.0
2014-Dec-20 00:17N 29°56' W 090°00'0 0.0
2014-Dec-19 23:28N 29°56' W 090°00'0 0.0
2014-Dec-19 22:06N 29°56' W 090°00'0 0.0
2014-Dec-19 21:22N 29°56' W 090°00'0 0.0
2014-Dec-19 19:24N 29°56' W 090°00'0 0.0
2014-Dec-19 18:24N 29°56' W 090°00'0 0.0
2014-Dec-19 17:33N 29°56' W 090°00'0 0.0
2014-Dec-19 16:30N 29°56' W 090°00'1 0.7
2014-Dec-19 15:32N 29°57' W 090°01'2 2.1
2014-Dec-19 14:31N 29°57' W 090°03'3 3.5
2014-Dec-19 13:30N 29°56' W 089°60'5 2.4
2014-Dec-19 11:17N 29°52' W 089°56'4 0.1
2014-Dec-17 15:26N 29°56' W 089°58'0 0.0
2014-Dec-17 12:24N 29°56' W 089°58'0 0.0
2014-Dec-17 09:09N 29°56' W 089°58'0 0.1
2014-Dec-17 08:31N 29°56' W 089°58'2 1.3
2014-Dec-17 07:10N 29°56' W 090°00'0 0.0
2014-Dec-17 06:22N 29°56' W 090°00'0 0.0
2014-Dec-17 05:10N 29°56' W 090°00'0 0.0
2014-Dec-17 04:28N 29°56' W 090°00'0 0.0
2014-Dec-17 03:33N 29°56' W 090°00'0 0.0
2014-Dec-17 02:32N 29°56' W 090°00'0 0.0
2014-Dec-17 01:33N 29°56' W 090°00'0 0.0
2014-Dec-17 00:32N 29°56' W 090°00'0 0.0
2014-Dec-16 23:33N 29°56' W 090°00'0 0.0
2014-Dec-16 22:33N 29°56' W 090°00'0 0.0
2014-Dec-16 21:32N 29°56' W 090°00'0 0.0
2014-Dec-16 20:32N 29°56' W 090°00'0 0.0
2014-Dec-16 19:26N 29°56' W 090°00'0 0.0
2014-Dec-16 13:15N 29°56' W 090°00'0 0.0
2014-Dec-16 03:26N 29°56' W 090°00'0 0.0
2014-Dec-16 02:31N 29°56' W 090°00'0 0.0
2014-Dec-15 23:20N 29°56' W 090°00'0 0.0
2014-Dec-15 22:26N 29°56' W 090°00'0 0.0
2014-Dec-15 21:33N 29°56' W 090°00'0 0.0
2014-Dec-15 20:20N 29°56' W 090°00'0 0.0
2014-Dec-15 19:32N 29°56' W 090°00'0 0.0
2014-Dec-15 18:33N 29°56' W 090°00'0 0.0
2014-Dec-15 17:33N 29°56' W 090°00'0 0.0
2014-Dec-15 16:31N 29°56' W 090°00'0 0.0
2014-Dec-15 15:33N 29°56' W 090°00'0 0.0
2014-Dec-15 14:32N 29°56' W 090°00'0 0.0
2014-Dec-15 13:33N 29°56' W 090°00'0 0.0
2014-Dec-15 12:19N 29°56' W 090°00'0 0.0
2014-Dec-15 11:26N 29°56' W 090°00'0 0.0
2014-Dec-14 20:14N 29°56' W 090°00'0 0.0
2014-Dec-14 19:33N 29°56' W 090°00'0 0.0
2014-Dec-14 18:28N 29°56' W 090°00'0 0.0
2014-Dec-14 17:31N 29°56' W 090°00'0 0.0
2014-Dec-14 16:33N 29°56' W 090°00'0 0.0
2014-Dec-14 15:33N 29°56' W 090°00'0 0.0
2014-Dec-14 14:32N 29°56' W 090°00'0 0.0
2014-Dec-14 13:33N 29°56' W 090°00'1 0.6
2014-Dec-14 12:33N 29°57' W 090°00'3 2.9
2014-Dec-14 11:32N 29°60' W 090°01'2 1.4
2014-Dec-14 10:25N 29°60' W 089°59'0 0.0
2014-Dec-14 09:32N 29°60' W 089°59'0 0.0
2014-Dec-14 08:33N 29°60' W 089°59'0 0.0
2014-Dec-14 07:32N 29°60' W 089°59'0 0.0
2014-Dec-14 06:29N 29°60' W 089°59'0 0.0
2014-Dec-14 05:33N 29°60' W 089°59'0 0.0
2014-Dec-14 04:29N 29°60' W 089°59'0 0.0
2014-Dec-14 03:33N 29°60' W 089°59'0 0.0
2014-Dec-14 02:33N 29°60' W 089°59'0 0.0
2014-Dec-14 01:33N 29°60' W 089°59'0 0.0
2014-Dec-14 00:27N 29°60' W 089°59'0 0.0
2014-Dec-13 23:25N 29°60' W 089°59'0 0.0
2014-Dec-13 22:31N 29°60' W 089°59'0 0.0
2014-Dec-13 21:32N 29°60' W 089°59'0 0.0
2014-Dec-13 20:05N 29°60' W 089°59'0 0.0
2014-Dec-13 13:06N 29°60' W 089°59'  

Dump ship's entire track history